createdAt,value
2023-05-14T00:02:08.937Z,26.34
2023-05-14T00:04:37.578Z,26.37
2023-05-14T00:07:06.466Z,26.50
2023-05-14T00:09:35.080Z,26.52
2023-05-14T00:12:03.717Z,26.48
2023-05-14T00:14:32.333Z,26.42
2023-05-14T00:17:01.168Z,26.52
2023-05-14T00:19:29.692Z,26.31
2023-05-14T00:21:59.332Z,26.32
2023-05-14T00:24:27.664Z,26.27
2023-05-14T00:26:56.262Z,26.34
2023-05-14T00:29:24.856Z,26.25
2023-05-14T00:31:53.534Z,26.15
2023-05-14T00:34:22.383Z,26.31
2023-05-14T00:36:53.211Z,26.09
2023-05-14T00:39:21.821Z,26.20
2023-05-14T00:41:50.058Z,26.12
2023-05-14T00:44:18.647Z,26.12
2023-05-14T00:46:47.185Z,26.22
2023-05-14T00:49:16.257Z,26.11
2023-05-14T00:51:47.885Z,26.20
2023-05-14T00:54:17.715Z,26.22
2023-05-14T00:56:49.566Z,26.16
2023-05-14T00:59:18.522Z,26.00
2023-05-14T01:01:47.112Z,26.15
2023-05-14T01:04:15.668Z,26.07
2023-05-14T01:07:02.544Z,26.11
2023-05-14T01:09:59.001Z,26.02
2023-05-14T01:12:48.640Z,25.88
2023-05-14T01:15:28.268Z,25.88
2023-05-14T01:18:06.172Z,25.89
2023-05-14T01:20:34.473Z,25.65
2023-05-14T01:23:05.856Z,25.80
2023-05-14T01:25:35.407Z,25.72
2023-05-14T01:28:21.450Z,25.71
2023-05-14T01:31:05.264Z,25.51
2023-05-14T01:33:36.808Z,25.58
2023-05-14T01:36:07.394Z,25.58
2023-05-14T01:38:37.413Z,25.54
2023-05-14T01:41:06.408Z,25.47
2023-05-14T01:43:37.177Z,25.30
2023-05-14T01:46:06.259Z,25.39
2023-05-14T01:48:34.950Z,25.32
2023-05-14T01:51:04.006Z,25.22
2023-05-14T01:53:32.578Z,25.18
2023-05-14T01:56:01.383Z,25.07
2023-05-14T01:58:30.015Z,25.04
2023-05-14T02:00:58.868Z,24.95
2023-05-14T02:03:27.734Z,24.92
2023-05-14T02:05:56.468Z,24.87
2023-05-14T02:08:24.775Z,24.77
2023-05-14T02:10:53.404Z,24.68
2023-05-14T02:13:21.760Z,24.58
2023-05-14T02:15:51.432Z,24.37
2023-05-14T02:18:20.320Z,24.41
2023-05-14T02:20:48.691Z,24.28
2023-05-14T02:23:17.313Z,24.10
2023-05-14T02:25:46.286Z,24.08
2023-05-14T02:28:14.880Z,23.88
2023-05-14T02:30:44.418Z,23.89
2023-05-14T02:33:12.959Z,23.73
2023-05-14T02:35:41.600Z,23.68
2023-05-14T02:38:10.810Z,23.39
2023-05-14T02:40:39.688Z,23.38
2023-05-14T02:43:08.418Z,23.29
2023-05-14T02:45:37.516Z,23.22
2023-05-14T02:48:06.199Z,22.90
2023-05-14T02:50:34.889Z,22.97
2023-05-14T02:53:03.588Z,22.85
2023-05-14T02:55:32.475Z,22.89
2023-05-14T02:58:00.887Z,22.72
2023-05-14T03:00:29.091Z,22.66
2023-05-14T03:02:58.372Z,22.68
2023-05-14T03:05:27.593Z,22.42
2023-05-14T03:07:56.270Z,22.49
2023-05-14T03:10:25.212Z,22.21
2023-05-14T03:12:55.080Z,22.23
2023-05-14T03:15:23.723Z,22.13
2023-05-14T03:17:52.376Z,22.14
2023-05-14T03:20:21.312Z,22.15
2023-05-14T03:22:50.158Z,22.27
2023-05-14T03:25:18.928Z,22.21
2023-05-14T03:27:47.546Z,22.13
2023-05-14T03:30:17.068Z,21.96
2023-05-14T03:32:46.251Z,22.00
2023-05-14T03:35:15.830Z,21.78
2023-05-14T03:37:44.366Z,21.81
2023-05-14T03:40:12.855Z,21.69
2023-05-14T03:42:41.144Z,21.64
2023-05-14T03:45:10.283Z,21.54
2023-05-14T03:47:39.003Z,21.40
2023-05-14T03:50:08.811Z,21.39
2023-05-14T03:52:37.573Z,21.50
2023-05-14T03:55:06.240Z,21.39
2023-05-14T03:57:34.790Z,21.34
2023-05-14T04:00:03.758Z,21.23
2023-05-14T04:02:32.825Z,21.24
2023-05-14T04:05:01.730Z,21.20
2023-05-14T04:07:29.633Z,21.14
2023-05-14T04:09:58.523Z,21.02
2023-05-14T04:12:28.124Z,20.78
2023-05-14T04:14:58.697Z,20.75
2023-05-14T04:17:27.577Z,20.70
2023-05-14T04:19:56.193Z,20.55
2023-05-14T04:22:24.935Z,20.64
2023-05-14T04:24:54.279Z,20.53
2023-05-14T04:27:23.170Z,20.57
2023-05-14T04:29:52.265Z,20.32
2023-05-14T04:32:21.097Z,20.44
2023-05-14T04:34:49.748Z,20.31
2023-05-14T04:37:18.070Z,20.29
2023-05-14T04:39:46.661Z,20.07
2023-05-14T04:42:15.231Z,20.18
2023-05-14T04:44:43.801Z,20.18
2023-05-14T04:47:12.629Z,20.04
2023-05-14T04:49:41.628Z,19.77
2023-05-14T04:52:10.485Z,19.84
2023-05-14T04:54:39.107Z,19.78
2023-05-14T04:57:07.892Z,19.81
2023-05-14T04:59:37.002Z,19.71
2023-05-14T05:02:06.051Z,19.51
2023-05-14T05:04:34.680Z,19.45
2023-05-14T05:07:03.440Z,19.37
2023-05-14T05:09:32.489Z,19.35
2023-05-14T05:12:02.899Z,19.36
2023-05-14T05:14:31.322Z,19.34
2023-05-14T05:16:59.869Z,19.31
2023-05-14T05:19:42.482Z,19.42
2023-05-14T05:22:12.811Z,19.43
2023-05-14T05:24:41.011Z,19.23
2023-05-14T05:27:09.188Z,19.19
2023-05-14T05:29:38.055Z,19.40
2023-05-14T05:32:07.257Z,19.36
2023-05-14T05:34:35.983Z,19.26
2023-05-14T05:37:04.358Z,19.21
2023-05-14T05:39:36.055Z,19.13
2023-05-14T05:42:05.064Z,19.12
2023-05-14T05:44:33.791Z,18.97
2023-05-14T05:47:02.634Z,18.91
2023-05-14T05:49:31.348Z,18.78
2023-05-14T05:52:00.920Z,18.89
2023-05-14T05:54:29.436Z,18.84
2023-05-14T05:56:58.173Z,18.55
2023-05-14T05:59:26.898Z,18.56
2023-05-14T06:01:58.523Z,18.69
2023-05-14T06:04:27.265Z,18.48
2023-05-14T06:06:55.892Z,18.59
2023-05-14T06:09:24.247Z,18.47
2023-05-14T06:11:52.844Z,18.38
2023-05-14T06:14:21.442Z,18.33
2023-05-14T06:16:50.227Z,18.32
2023-05-14T06:19:18.846Z,18.15
2023-05-14T06:21:47.112Z,18.21
2023-05-14T06:24:15.748Z,18.17
2023-05-14T06:26:44.356Z,18.20
2023-05-14T06:29:12.870Z,18.00
2023-05-14T06:31:41.137Z,17.89
2023-05-14T06:34:10.522Z,18.03
2023-05-14T06:36:39.107Z,17.86
2023-05-14T06:39:07.991Z,17.95
2023-05-14T06:41:35.951Z,17.97
2023-05-14T06:44:05.054Z,18.00
2023-05-14T06:46:33.160Z,17.92
2023-05-14T06:49:01.818Z,17.83
2023-05-14T06:51:30.226Z,17.78
2023-05-14T06:53:58.782Z,17.68
2023-05-14T06:56:27.391Z,17.73
2023-05-14T06:58:56.016Z,17.72
2023-05-14T07:01:24.934Z,17.68
2023-05-14T07:03:53.559Z,17.78
2023-05-14T07:06:22.827Z,17.68
2023-05-14T07:08:51.510Z,17.64
2023-05-14T07:11:20.146Z,17.70
2023-05-14T07:13:48.704Z,17.59
2023-05-14T07:16:17.298Z,17.56
2023-05-14T07:18:46.577Z,17.57
2023-05-14T07:21:15.154Z,17.37
2023-05-14T07:23:43.731Z,17.50
2023-05-14T07:26:12.545Z,17.47
2023-05-14T07:28:41.131Z,17.46
2023-05-14T07:31:10.324Z,17.36
2023-05-14T07:33:40.183Z,17.30
2023-05-14T07:36:10.077Z,17.09
2023-05-14T07:38:38.750Z,17.24
2023-05-14T07:41:07.442Z,17.19
2023-05-14T07:43:36.059Z,17.21
2023-05-14T07:46:04.358Z,16.95
2023-05-14T07:48:32.593Z,16.85
2023-05-14T07:51:01.785Z,17.02
2023-05-14T07:53:30.803Z,17.02
2023-05-14T07:56:01.386Z,16.92
2023-05-14T07:58:30.299Z,16.72
2023-05-14T08:00:58.932Z,16.68
2023-05-14T08:03:28.429Z,16.68
2023-05-14T08:05:58.720Z,16.76
2023-05-14T08:08:28.776Z,16.73
2023-05-14T08:10:57.427Z,16.78
2023-05-14T08:13:25.381Z,16.68
2023-05-14T08:15:54.115Z,16.73
2023-05-14T08:18:22.845Z,16.64
2023-05-14T08:20:51.447Z,16.66
2023-05-14T08:23:20.081Z,16.59
2023-05-14T08:25:48.721Z,16.56
2023-05-14T08:28:17.392Z,16.45
2023-05-14T08:30:45.751Z,16.34
2023-05-14T08:33:15.289Z,16.34
2023-05-14T08:35:43.928Z,16.31
2023-05-14T08:38:12.846Z,16.27
2023-05-14T08:40:41.629Z,16.21
2023-05-14T08:43:13.230Z,16.15
2023-05-14T08:45:42.760Z,15.89
2023-05-14T08:48:16.519Z,16.12
2023-05-14T08:50:45.896Z,16.01
2023-05-14T08:53:14.626Z,15.83
2023-05-14T08:55:44.509Z,16.02
2023-05-14T08:58:13.257Z,15.92
2023-05-14T09:00:43.654Z,15.90
2023-05-14T09:03:13.909Z,15.80
2023-05-14T09:05:43.042Z,15.79
2023-05-14T09:08:11.668Z,15.59
2023-05-14T09:10:41.702Z,15.68
2023-05-14T09:13:11.254Z,15.65
2023-05-14T09:15:42.770Z,15.52
2023-05-14T09:18:12.933Z,15.48
2023-05-14T09:20:41.640Z,15.41
2023-05-14T09:23:10.111Z,15.30
2023-05-14T09:25:38.677Z,15.27
2023-05-14T09:28:13.386Z,15.12
2023-05-14T09:30:42.052Z,15.11
2023-05-14T09:33:11.385Z,15.22
2023-05-14T09:35:42.712Z,15.04
2023-05-14T09:38:10.704Z,15.13
2023-05-14T09:40:39.711Z,14.84
2023-05-14T09:43:07.812Z,15.00
2023-05-14T09:45:36.567Z,14.95
2023-05-14T09:48:05.121Z,14.91
2023-05-14T09:50:33.859Z,14.86
2023-05-14T09:53:02.734Z,14.81
2023-05-14T09:55:32.702Z,14.70
2023-05-14T09:58:01.245Z,14.64
2023-05-14T10:00:30.660Z,14.61
2023-05-14T10:03:00.779Z,14.60
2023-05-14T10:05:30.428Z,14.53
2023-05-14T10:08:03.472Z,14.37
2023-05-14T10:10:32.290Z,14.49
2023-05-14T10:13:05.867Z,14.40
2023-05-14T10:16:08.382Z,14.37
2023-05-14T10:18:47.236Z,14.36
2023-05-14T10:21:17.873Z,14.35
2023-05-14T10:23:47.469Z,14.25
2023-05-14T10:26:16.837Z,14.25
2023-05-14T10:28:46.272Z,14.26
2023-05-14T10:31:14.925Z,14.06
2023-05-14T10:33:51.765Z,13.94
2023-05-14T10:36:20.573Z,14.09
2023-05-14T10:38:56.793Z,13.99
2023-05-14T10:41:26.561Z,13.95
2023-05-14T10:43:55.524Z,13.81
2023-05-14T10:46:24.184Z,13.90
2023-05-14T10:48:52.812Z,13.81
2023-05-14T10:51:23.965Z,13.73
2023-05-14T10:53:54.144Z,13.66
2023-05-14T10:56:23.708Z,13.61
2023-05-14T10:58:52.584Z,13.60
2023-05-14T11:01:26.907Z,13.58
2023-05-14T11:03:57.247Z,13.34
2023-05-14T11:06:28.981Z,13.45
2023-05-14T11:08:57.705Z,13.41
2023-05-14T11:11:27.652Z,13.38
2023-05-14T11:13:56.902Z,13.28
2023-05-14T11:16:30.550Z,13.23
2023-05-14T11:19:06.893Z,13.19
2023-05-14T11:21:35.609Z,13.11
2023-05-14T11:24:06.374Z,13.09
2023-05-14T11:26:35.840Z,13.05
2023-05-14T11:29:04.515Z,13.01
2023-05-14T11:31:33.235Z,12.98
2023-05-14T11:34:02.666Z,12.97
2023-05-14T11:36:31.268Z,12.91
2023-05-14T11:38:59.841Z,12.89
2023-05-14T11:41:29.541Z,12.83
2023-05-14T11:43:57.895Z,12.80
2023-05-14T11:46:27.512Z,12.80
2023-05-14T11:48:57.139Z,12.72
2023-05-14T11:51:25.523Z,12.71
2023-05-14T11:53:55.908Z,12.52
2023-05-14T11:56:24.492Z,12.61
2023-05-14T11:59:00.160Z,12.46
2023-05-14T12:01:30.250Z,12.60
2023-05-14T12:03:58.977Z,12.60
2023-05-14T12:06:35.461Z,12.40
2023-05-14T12:09:07.215Z,12.38
2023-05-14T12:11:38.280Z,12.58
2023-05-14T12:14:16.499Z,12.32
2023-05-14T12:16:48.574Z,12.50
2023-05-14T12:19:19.588Z,12.39
2023-05-14T12:21:52.505Z,12.50
2023-05-14T12:24:21.481Z,12.47
2023-05-14T12:26:51.391Z,12.51
2023-05-14T12:29:19.924Z,12.33
2023-05-14T12:31:50.083Z,12.35
2023-05-14T12:34:19.109Z,12.40
2023-05-14T12:36:47.713Z,12.62
2023-05-14T12:39:16.387Z,12.61
2023-05-14T12:41:45.356Z,12.68
2023-05-14T12:44:13.708Z,12.68
2023-05-14T12:46:42.408Z,12.74
2023-05-14T12:49:10.959Z,12.77
2023-05-14T12:51:39.512Z,12.82
2023-05-14T12:54:08.059Z,12.85
2023-05-14T12:56:39.200Z,12.88
2023-05-14T12:59:07.977Z,12.93
2023-05-14T13:01:36.886Z,12.99
2023-05-14T13:04:06.912Z,13.05
2023-05-14T13:06:35.538Z,13.07
2023-05-14T13:09:04.734Z,12.93
2023-05-14T13:11:33.560Z,13.15
2023-05-14T13:14:03.286Z,13.18
2023-05-14T13:16:33.044Z,13.28
2023-05-14T13:19:01.962Z,13.34
2023-05-14T13:21:31.559Z,13.40
2023-05-14T13:24:00.189Z,13.46
2023-05-14T13:26:29.695Z,13.56
2023-05-14T13:28:57.856Z,13.60
2023-05-14T13:31:25.982Z,13.55
2023-05-14T13:33:54.815Z,13.70
2023-05-14T13:36:23.278Z,13.84
2023-05-14T13:38:51.892Z,13.78
2023-05-14T13:41:20.503Z,14.02
2023-05-14T13:43:49.188Z,13.95
2023-05-14T13:46:17.791Z,14.20
2023-05-14T13:48:46.400Z,14.31
2023-05-14T13:51:15.116Z,14.50
2023-05-14T13:53:44.591Z,14.65
2023-05-14T13:56:13.103Z,14.75
2023-05-14T13:58:41.867Z,14.81
2023-05-14T14:01:10.559Z,15.12
2023-05-14T14:03:39.342Z,15.21
2023-05-14T14:06:08.257Z,15.33
2023-05-14T14:08:37.278Z,15.50
2023-05-14T14:11:06.166Z,15.65
2023-05-14T14:13:34.409Z,15.83
2023-05-14T14:16:04.535Z,15.83
2023-05-14T14:18:33.224Z,16.12
2023-05-14T14:21:01.822Z,16.32
2023-05-14T14:23:30.240Z,16.42
2023-05-14T14:25:59.443Z,16.55
2023-05-14T14:28:28.137Z,16.49
2023-05-14T14:30:56.796Z,16.74
2023-05-14T14:33:25.340Z,16.87
2023-05-14T14:35:53.952Z,16.84
2023-05-14T14:38:22.630Z,17.11
2023-05-14T14:40:50.830Z,17.20
2023-05-14T14:43:20.351Z,17.30
2023-05-14T14:45:49.844Z,17.13
2023-05-14T14:48:27.575Z,17.47
2023-05-14T14:50:57.214Z,17.46
2023-05-14T14:53:26.369Z,17.60
2023-05-14T14:55:55.156Z,17.64
2023-05-14T14:58:24.329Z,17.84
2023-05-14T15:00:55.238Z,17.95
2023-05-14T15:03:24.482Z,18.11
2023-05-14T15:05:54.647Z,17.95
2023-05-14T15:08:27.731Z,18.29
2023-05-14T15:10:59.407Z,18.30
2023-05-14T15:13:27.777Z,18.55
2023-05-14T15:15:56.380Z,18.59
2023-05-14T15:18:25.083Z,18.68
2023-05-14T15:20:54.237Z,18.91
2023-05-14T15:23:23.687Z,19.02
2023-05-14T15:25:52.625Z,19.13
2023-05-14T15:28:21.315Z,19.25
2023-05-14T15:30:50.260Z,19.40
2023-05-14T15:33:20.613Z,19.49
2023-05-14T15:35:49.211Z,19.58
2023-05-14T15:38:17.791Z,19.99
2023-05-14T15:40:46.552Z,20.12
2023-05-14T15:43:15.192Z,20.38
2023-05-14T15:45:47.493Z,20.73
2023-05-14T15:48:16.240Z,20.81
2023-05-14T15:50:45.466Z,21.08
2023-05-14T15:53:14.727Z,21.32
2023-05-14T15:55:42.970Z,21.35
2023-05-14T15:58:11.596Z,21.64
2023-05-14T16:00:40.911Z,21.72
2023-05-14T16:03:09.528Z,21.99
2023-05-14T16:05:38.393Z,21.92
2023-05-14T16:08:07.649Z,22.36
2023-05-14T16:10:36.318Z,22.60
2023-05-14T16:13:05.027Z,22.41
2023-05-14T16:15:33.694Z,22.62
2023-05-14T16:18:02.615Z,22.71
2023-05-14T16:20:31.209Z,22.67
2023-05-14T16:22:59.765Z,22.88
2023-05-14T16:25:28.348Z,23.57
2023-05-14T16:27:56.984Z,23.15
2023-05-14T16:30:25.461Z,23.35
2023-05-14T16:32:57.152Z,23.33
2023-05-14T16:35:25.833Z,23.47
2023-05-14T16:37:54.527Z,23.51
2023-05-14T16:40:27.228Z,23.47
2023-05-14T16:42:55.900Z,23.70
2023-05-14T16:45:24.276Z,23.73
2023-05-14T16:47:53.084Z,24.18
2023-05-14T16:50:22.238Z,24.18
2023-05-14T16:52:50.812Z,24.31
2023-05-14T16:55:21.095Z,24.36
2023-05-14T16:57:49.872Z,24.39
2023-05-14T17:00:19.255Z,24.59
2023-05-14T17:02:51.153Z,24.88
2023-05-14T17:05:19.792Z,24.82
2023-05-14T17:07:49.326Z,24.73
2023-05-14T17:10:18.406Z,24.64
2023-05-14T17:12:48.120Z,24.77
2023-05-14T17:15:16.708Z,25.08
2023-05-14T17:17:45.016Z,24.79
2023-05-14T17:20:15.930Z,25.01
2023-05-14T17:22:45.680Z,25.23
2023-05-14T17:25:14.440Z,25.26
2023-05-14T17:27:42.413Z,24.96
2023-05-14T17:30:11.482Z,25.13
2023-05-14T17:32:40.137Z,25.29
2023-05-14T17:35:11.183Z,25.39
2023-05-14T17:37:39.794Z,25.50
2023-05-14T17:40:08.970Z,25.74
2023-05-14T17:42:37.605Z,25.83
2023-05-14T17:45:06.707Z,25.93
2023-05-14T17:47:35.389Z,25.97
2023-05-14T17:50:04.048Z,25.77
2023-05-14T17:52:32.413Z,25.98
2023-05-14T17:55:00.365Z,26.19
2023-05-14T17:57:29.088Z,26.12
2023-05-14T17:59:57.842Z,26.22
2023-05-14T18:02:26.642Z,25.75
2023-05-14T18:04:55.566Z,26.10
2023-05-14T18:07:24.518Z,25.98
2023-05-14T18:09:53.143Z,25.83
2023-05-14T18:12:21.395Z,25.89
2023-05-14T18:14:50.105Z,25.83
2023-05-14T18:17:18.974Z,25.66
2023-05-14T18:19:47.573Z,25.93
2023-05-14T18:22:16.804Z,25.84
2023-05-14T18:24:45.459Z,26.11
2023-05-14T18:27:14.093Z,26.00
2023-05-14T18:29:43.449Z,25.86
2023-05-14T18:32:12.123Z,26.08
2023-05-14T18:34:40.716Z,26.15
2023-05-14T18:37:10.075Z,25.90
2023-05-14T18:39:38.841Z,25.98
2023-05-14T18:42:07.708Z,26.25
2023-05-14T18:44:36.345Z,26.49
2023-05-14T18:47:05.140Z,26.28
2023-05-14T18:49:33.293Z,26.34
2023-05-14T18:52:01.831Z,26.53
2023-05-14T18:54:30.339Z,26.88
2023-05-14T18:56:59.122Z,26.36
2023-05-14T18:59:28.010Z,26.19
2023-05-14T19:01:56.744Z,26.45
2023-05-14T19:04:25.443Z,26.12
2023-05-14T19:06:54.254Z,26.29
2023-05-14T19:09:24.047Z,26.23
2023-05-14T19:11:53.664Z,26.25
2023-05-14T19:14:22.388Z,26.34
2023-05-14T19:16:50.863Z,26.51
2023-05-14T19:19:19.269Z,26.40
2023-05-14T19:21:48.876Z,26.40
2023-05-14T19:24:17.082Z,26.38
2023-05-14T19:26:45.950Z,26.44
2023-05-14T19:29:14.715Z,26.37
2023-05-14T19:31:43.430Z,26.50
2023-05-14T19:34:12.116Z,26.57
2023-05-14T19:36:40.861Z,26.50
2023-05-14T19:39:08.793Z,26.35
2023-05-14T19:41:37.372Z,26.30
2023-05-14T19:44:06.024Z,26.50
2023-05-14T19:46:34.276Z,26.69
2023-05-14T19:49:02.929Z,26.71
2023-05-14T19:51:30.902Z,26.76
2023-05-14T19:53:59.539Z,26.67
2023-05-14T19:56:28.878Z,26.66
2023-05-14T19:58:57.470Z,26.44
2023-05-14T20:01:25.846Z,26.36
2023-05-14T20:03:54.031Z,26.83
2023-05-14T20:06:22.429Z,26.91
2023-05-14T20:08:52.560Z,26.83
2023-05-14T20:11:21.225Z,26.83
2023-05-14T20:13:50.791Z,26.65
2023-05-14T20:16:19.963Z,26.98
2023-05-14T20:18:48.647Z,26.77
2023-05-14T20:21:16.911Z,26.86
2023-05-14T20:23:45.205Z,26.96
2023-05-14T20:26:13.853Z,26.84
2023-05-14T20:28:44.698Z,26.92
2023-05-14T20:31:12.953Z,26.89
2023-05-14T20:33:41.584Z,26.89
2023-05-14T20:36:10.140Z,26.77
2023-05-14T20:38:38.793Z,26.84
2023-05-14T20:41:07.404Z,26.75
2023-05-14T20:43:35.991Z,26.89
2023-05-14T20:46:06.840Z,26.92
2023-05-14T20:48:34.883Z,26.99
2023-05-14T20:51:06.190Z,26.99
2023-05-14T20:53:35.399Z,26.76
2023-05-14T20:56:04.010Z,26.67
2023-05-14T20:58:32.538Z,26.73
2023-05-14T21:01:01.186Z,26.78
2023-05-14T21:03:29.964Z,26.85
2023-05-14T21:05:59.209Z,26.61
2023-05-14T21:08:28.948Z,26.62
2023-05-14T21:10:57.280Z,26.78
2023-05-14T21:13:25.323Z,27.08
2023-05-14T21:15:54.188Z,26.94
2023-05-14T21:18:22.885Z,27.00
2023-05-14T21:20:51.082Z,27.18
2023-05-14T21:23:20.944Z,27.12
2023-05-14T21:25:49.104Z,26.93
2023-05-14T21:28:17.727Z,27.18
2023-05-14T21:30:46.270Z,27.17
2023-05-14T21:33:14.845Z,27.15
2023-05-14T21:35:44.260Z,27.13
2023-05-14T21:38:13.341Z,27.21
2023-05-14T21:40:41.543Z,27.12
2023-05-14T21:43:10.172Z,27.11
2023-05-14T21:45:38.851Z,27.27
2023-05-14T21:48:08.297Z,27.34
2023-05-14T21:50:36.960Z,27.19
2023-05-14T21:53:05.629Z,27.13
2023-05-14T21:55:33.661Z,27.25
2023-05-14T21:58:02.297Z,27.32
2023-05-14T22:00:31.219Z,27.37
2023-05-14T22:03:00.455Z,27.20
2023-05-14T22:05:29.280Z,27.14
2023-05-14T22:07:58.372Z,27.39
2023-05-14T22:10:27.007Z,27.11
2023-05-14T22:12:55.693Z,27.09
2023-05-14T22:15:24.262Z,26.92
2023-05-14T22:17:53.058Z,26.93
2023-05-14T22:20:21.662Z,26.92
2023-05-14T22:22:51.250Z,26.96
2023-05-14T22:25:19.853Z,26.96
2023-05-14T22:27:48.433Z,26.93
2023-05-14T22:30:17.092Z,27.10
2023-05-14T22:32:45.754Z,27.29
2023-05-14T22:35:15.337Z,27.21
2023-05-14T22:37:43.948Z,27.17
2023-05-14T22:40:14.810Z,27.30
2023-05-14T22:42:43.497Z,27.16
2023-05-14T22:45:12.448Z,27.36
2023-05-14T22:47:41.030Z,27.15
2023-05-14T22:50:13.052Z,27.23
2023-05-14T22:52:42.552Z,27.28
2023-05-14T22:55:11.252Z,27.43
2023-05-14T22:57:40.423Z,27.41
2023-05-14T23:00:09.717Z,27.33
2023-05-14T23:02:38.479Z,27.31
2023-05-14T23:05:08.184Z,27.26
2023-05-14T23:07:37.192Z,27.24
2023-05-14T23:10:08.949Z,27.14
2023-05-14T23:12:37.713Z,27.22
2023-05-14T23:15:07.776Z,27.38
2023-05-14T23:17:36.401Z,27.06
2023-05-14T23:20:06.993Z,27.16
2023-05-14T23:22:35.618Z,26.99
2023-05-14T23:25:03.935Z,27.01
2023-05-14T23:27:32.757Z,27.10
2023-05-14T23:30:01.331Z,26.98
2023-05-14T23:32:29.990Z,26.81
2023-05-14T23:34:58.666Z,26.95
2023-05-14T23:37:27.260Z,26.91
2023-05-14T23:39:55.906Z,26.84
2023-05-14T23:42:24.639Z,27.02
2023-05-14T23:44:53.224Z,26.95
2023-05-14T23:47:22.188Z,26.95
2023-05-14T23:49:50.792Z,26.89
2023-05-14T23:52:19.323Z,26.99
2023-05-14T23:54:47.942Z,26.82
2023-05-14T23:57:16.701Z,26.89
2023-05-14T23:59:45.345Z,26.94
